Time;durP1;ratioP1;P1;durP2;ratioP2;P2;SDS_P1;SDS_P2;PMS_P1;PMS_P2;Temp;Humidity;BMP_temperature;BMP_pressure;BME280_temperature;BME280_humidity;BME280_pressure;Samples;Min_cycle;Max_cycle;Signal;HPM_P1;HPM_P2
2023/09/25 00:01:58;;;;;;;;;8.33;6.00;;;;;21.66;41.08;101499.31;4919879;28;49359;-43
2023/09/25 00:04:25;;;;;;;;;11.75;5.50;;;;;21.65;41.33;101502.88;4919427;28;55217;-46
2023/09/25 00:06:51;;;;;;;;;4.75;4.75;;;;;21.66;41.40;101498.47;4919843;28;45800;-41
2023/09/25 00:09:16;;;;;;;;;5.75;5.00;;;;;21.66;41.02;101506.41;4919865;28;45529;-39
2023/09/25 00:11:42;;;;;;;;;6.50;5.50;;;;;21.67;41.48;101523.91;4919657;28;46445;-43
2023/09/25 00:14:08;;;;;;;;;3.25;2.25;;;;;21.67;41.28;101523.91;4919645;28;47639;-40
2023/09/25 00:16:34;;;;;;;;;5.50;4.00;;;;;21.62;41.19;101503.03;4920176;28;45351;-46
2023/09/25 00:18:59;;;;;;;;;4.75;4.50;;;;;21.66;41.36;101506.41;4919834;28;45513;-45
2023/09/25 00:21:24;;;;;;;;;4.75;3.75;;;;;21.66;41.17;101506.41;4919991;28;45594;-42
2023/09/25 00:23:50;;;;;;;;;7.00;5.00;;;;;21.65;41.16;101521.34;4919508;28;46014;-42
2023/09/25 00:26:15;;;;;;;;;6.00;4.50;;;;;21.64;41.20;101524.06;4919547;28;45272;-39
2023/09/25 00:28:42;;;;;;;;;4.75;4.25;;;;;21.65;41.32;101520.50;4919894;28;45392;-42
2023/09/25 00:31:09;;;;;;;;;4.75;4.75;;;;;21.66;41.30;101516.94;4919830;28;45557;-41
2023/09/25 00:33:34;;;;;;;;;7.00;5.00;;;;;21.66;41.11;101524.88;4919316;28;45470;-40
2023/09/25 00:36:03;;;;;;;;;5.25;4.25;;;;;21.65;41.49;101525.78;4919364;28;45497;-43
2023/09/25 00:38:28;;;;;;;;;8.00;4.75;;;;;21.64;41.03;101508.25;4919393;28;45375;-43
2023/09/25 00:40:53;;;;;;;;;3.50;3.25;;;;;21.65;41.20;101520.50;4902484;28;45319;-40
2023/09/25 00:43:19;;;;;;;;;4.50;4.00;;;;;21.65;41.18;101520.50;4919237;28;46411;-45
2023/09/25 00:45:47;;;;;;;;;3.00;3.00;;;;;21.64;41.29;101519.66;4919094;28;60095;-43
2023/09/25 00:48:33;;;;;;;;;5.50;4.25;;;;;21.65;41.32;101515.25;4902348;28;45367;-44
2023/09/25 00:51:03;;;;;;;;;6.75;4.50;;;;;21.65;41.59;101504.69;4919177;28;45369;-43
2023/09/25 00:53:32;;;;;;;;;5.00;4.00;;;;;21.64;41.42;101506.44;4919157;28;45360;-42
2023/09/25 00:55:58;;;;;;;;;4.00;4.00;;;;;21.64;41.49;101508.25;4919143;28;45873;-45
2023/09/25 00:58:24;;;;;;;;;5.00;3.75;;;;;21.65;41.58;101504.69;4919265;28;45356;-47
2023/09/25 01:00:50;;;;;;;;;5.25;4.00;;;;;21.65;41.33;101504.69;4919265;28;45505;-46
2023/09/25 01:03:15;;;;;;;;;4.75;4.00;;;;;21.64;41.59;101502.97;4919326;28;45614;-44
2023/09/25 01:05:41;;;;;;;;;5.00;5.00;;;;;21.64;41.52;101502.97;4918602;28;56336;-43
2023/09/25 01:08:07;;;;;;;;;4.00;4.00;;;;;21.62;41.50;101503.91;4902055;28;45427;-44
2023/09/25 01:10:33;;;;;;;;;8.00;4.75;;;;;21.64;41.58;101502.97;4919166;28;45307;-44
2023/09/25 01:13:00;;;;;;;;;7.50;4.75;;;;;21.63;41.61;101494.19;4918931;28;47092;-40
2023/09/25 01:15:25;;;;;;;;;4.00;4.00;;;;;21.62;41.67;101490.72;4918948;28;45274;-46
2023/09/25 01:17:51;;;;;;;;;6.75;4.00;;;;;21.62;41.47;101496.00;4919128;28;45248;-40
2023/09/25 01:20:17;;;;;;;;;9.00;4.00;;;;;21.62;41.50;101501.25;4919410;28;45493;-44
2023/09/25 01:22:51;;;;;;;;;4.00;3.00;;;;;21.64;41.56;101492.41;4918234;28;45495;-46
2023/09/25 01:25:19;;;;;;;;;7.25;4.50;;;;;21.62;42.01;101501.25;4919251;28;45640;-44
2023/09/25 01:27:47;;;;;;;;;3.25;3.25;;;;;21.62;41.77;101501.25;4919178;28;45446;-41
2023/09/25 01:30:14;;;;;;;;;4.50;3.25;;;;;21.60;41.50;101489.94;4919022;28;45379;-40
2023/09/25 01:32:43;;;;;;;;;4.25;4.00;;;;;21.63;41.80;101502.09;4918688;28;45426;-44
2023/09/25 01:35:15;;;;;;;;;3.25;3.00;;;;;21.62;41.71;101495.13;4918744;28;45803;-42
2023/09/25 01:37:41;;;;;;;;;5.75;4.25;;;;;21.62;41.48;101508.31;4918741;28;45445;-42
2023/09/25 01:40:14;;;;;;;;;5.00;4.75;;;;;21.61;41.92;101502.19;4918655;28;45553;-40
2023/09/25 01:42:40;;;;;;;;;4.00;4.00;;;;;21.60;41.72;101497.84;4918451;28;45512;-43
2023/09/25 01:45:06;;;;;;;;;3.75;3.50;;;;;21.62;41.71;101508.31;4918552;28;45258;-43
2023/09/25 01:47:32;;;;;;;;;5.00;4.50;;;;;21.62;41.92;101505.66;4918644;28;45235;-43
2023/09/25 01:49:57;;;;;;;;;4.50;3.00;;;;;21.61;41.94;101499.56;4901446;28;45439;-45
2023/09/25 01:52:22;;;;;;;;;3.00;3.00;;;;;21.61;41.92;101494.28;4900495;28;69659;-43
2023/09/25 01:54:50;;;;;;;;;3.00;3.00;;;;;21.61;41.75;101496.03;4918019;28;62668;-43
2023/09/25 01:57:15;;;;;;;;;4.00;3.00;;;;;21.61;41.84;101491.63;4918803;28;45435;-45
2023/09/25 01:59:41;;;;;;;;;6.00;4.00;;;;;21.61;41.83;101491.63;4918614;28;45605;-42
2023/09/25 02:02:06;;;;;;;;;4.75;4.50;;;;;21.60;41.98;101489.94;4918213;28;46032;-40
2023/09/25 02:04:31;;;;;;;;;3.00;3.00;;;;;21.60;41.74;101489.94;4918405;28;45411;-42
2023/09/25 02:06:57;;;;;;;;;4.00;3.25;;;;;21.59;41.88;101490.84;4918450;28;45369;-43
2023/09/25 02:09:22;;;;;;;;;4.00;3.00;;;;;21.60;41.63;101489.94;4917987;28;46927;-45
2023/09/25 02:11:47;;;;;;;;;3.50;3.50;;;;;21.61;41.91;101489.00;4918404;28;47467;-41
2023/09/25 02:14:13;;;;;;;;;3.75;3.75;;;;;21.60;41.94;101483.81;4918104;28;46360;-47
2023/09/25 02:16:38;;;;;;;;;4.00;3.00;;;;;21.60;41.88;101482.00;4901124;28;45518;-45
2023/09/25 02:19:04;;;;;;;;;5.50;3.00;;;;;21.60;42.00;101482.00;4918029;28;49115;-47
2023/09/25 02:21:29;;;;;;;;;3.75;3.00;;;;;21.61;42.05;101490.78;4917977;28;49028;-47
2023/09/25 02:23:54;;;;;;;;;4.00;3.25;;;;;21.60;41.89;101489.09;4918198;28;45245;-40
2023/09/25 02:26:19;;;;;;;;;5.00;4.00;;;;;21.61;42.10;101488.13;4901257;28;45398;-42
2023/09/25 02:28:45;;;;;;;;;3.00;3.00;;;;;21.58;42.02;101491.75;4918269;28;45602;-43
2023/09/25 02:31:10;;;;;;;;;4.33;3.33;;;;;21.60;42.02;101489.09;4917238;28;66204;-46
2023/09/25 02:33:35;;;;;;;;;5.25;3.00;;;;;21.57;42.12;101483.94;4918064;28;45238;-46
2023/09/25 02:36:09;;;;;;;;;3.00;3.00;;;;;21.59;42.12;101511.13;4921434;28;45360;-48
2023/09/25 02:38:37;;;;;;;;;3.75;2.00;;;;;21.59;41.95;101495.28;4921234;28;45482;-45
2023/09/25 02:41:02;;;;;;;;;2.75;2.00;;;;;21.59;42.25;101493.50;4921220;28;45378;-45
2023/09/25 02:43:28;;;;;;;;;2.25;2.25;;;;;21.59;42.11;101490.84;4921249;28;45241;-42
2023/09/25 02:45:54;;;;;;;;;5.75;2.75;;;;;21.57;41.89;101479.50;4921256;28;45287;-42
2023/09/25 02:48:19;;;;;;;;;4.00;4.00;;;;;21.57;42.02;101482.13;4921721;28;45422;-43
2023/09/25 02:50:48;;;;;;;;;4.25;3.50;;;;;21.58;42.05;101478.56;4920746;28;45466;-42
2023/09/25 02:53:15;;;;;;;;;2.75;2.75;;;;;21.58;42.33;101478.56;4920960;28;45318;-44
2023/09/25 02:55:40;;;;;;;;;4.00;2.00;;;;;21.58;42.18;101478.56;4904244;28;45421;-43
2023/09/25 02:58:06;;;;;;;;;2.50;2.50;;;;;21.59;42.27;101479.47;4921255;28;45525;-42
2023/09/25 03:00:31;;;;;;;;;3.50;3.50;;;;;21.57;42.21;101482.13;4920523;28;56101;-42
2023/09/25 03:02:57;;;;;;;;;3.50;2.25;;;;;21.58;42.02;101489.13;4920915;28;45373;-42
2023/09/25 03:05:23;;;;;;;;;3.00;3.00;;;;;21.57;42.34;101486.56;4921309;28;45336;-45
2023/09/25 03:07:48;;;;;;;;;2.00;2.00;;;;;21.57;42.10;101486.56;4920999;28;45345;-40
2023/09/25 03:10:13;;;;;;;;;3.75;2.75;;;;;21.57;42.15;101491.84;4920628;28;46153;-40
2023/09/25 03:12:39;;;;;;;;;3.00;2.50;;;;;21.57;42.03;101500.59;4920732;28;45445;-45
2023/09/25 03:15:06;;;;;;;;;3.00;3.00;;;;;21.58;42.33;101488.28;4920727;28;45311;-44
2023/09/25 03:17:32;;;;;;;;;2.50;2.50;;;;;21.56;42.29;101498.88;4921028;28;45547;-45
2023/09/25 03:19:58;;;;;;;;;3.50;2.00;;;;;21.57;42.13;101497.94;4920548;28;45417;-46
2023/09/25 03:22:23;;;;;;;;;4.00;2.50;;;;;21.57;42.20;101497.13;4920879;28;45368;-46
2023/09/25 03:24:48;;;;;;;;;4.00;2.00;;;;;21.57;42.32;101491.84;4920195;28;56290;-42
2023/09/25 03:27:14;;;;;;;;;4.75;3.50;;;;;21.57;42.26;101494.47;4920732;28;45320;-42
2023/09/25 03:29:40;;;;;;;;;4.00;3.00;;;;;21.55;42.61;101497.16;4920418;28;46391;-41
2023/09/25 03:32:05;;;;;;;;;3.00;3.00;;;;;21.55;42.25;101499.81;4920522;28;45334;-45
2023/09/25 03:34:30;;;;;;;;;3.00;2.00;;;;;21.55;42.35;101504.25;4920205;28;48719;-43
2023/09/25 03:36:55;;;;;;;;;3.00;2.00;;;;;21.54;42.37;101507.81;4903237;28;45550;-41
2023/09/25 03:39:21;;;;;;;;;4.00;3.00;;;;;21.55;42.29;101512.16;4920330;28;45494;-44
2023/09/25 03:41:46;;;;;;;;;0.00;0.00;;;;;21.54;42.34;101513.94;4920343;28;45340;-44
2023/09/25 03:44:12;;;;;;;;;1.50;1.50;;;;;21.55;42.27;101514.78;4920432;28;45311;-43
2023/09/25 03:46:37;;;;;;;;;4.00;3.00;;;;;21.55;42.43;101515.63;4919291;28;49930;-43
2023/09/25 03:49:05;;;;;;;;;4.00;3.50;;;;;21.54;42.19;101518.34;4920002;28;45352;-46
2023/09/25 03:51:34;;;;;;;;;3.75;3.00;;;;;21.54;42.25;101519.22;4919916;28;45398;-47
2023/09/25 03:54:00;;;;;;;;;3.00;2.00;;;;;21.55;42.49;101520.91;4903123;28;45297;-48
2023/09/25 03:56:26;;;;;;;;;3.50;2.25;;;;;21.53;42.50;101517.50;4920300;28;45260;-47
2023/09/25 03:58:51;;;;;;;;;3.00;3.00;;;;;21.55;42.20;101512.16;4920137;28;45383;-44
2023/09/25 04:01:17;;;;;;;;;2.00;2.00;;;;;21.55;42.43;101505.09;4919978;28;45267;-46
2023/09/25 04:03:43;;;;;;;;;2.25;2.25;;;;;21.55;42.47;101515.63;4902944;28;45419;-45
2023/09/25 04:06:09;;;;;;;;;2.50;1.75;;;;;21.53;42.38;101530.69;4920107;28;45666;-46
2023/09/25 04:08:34;;;;;;;;;3.00;3.00;;;;;21.54;42.35;101529.78;4919789;28;47203;-40
2023/09/25 04:10:59;;;;;;;;;3.00;1.50;;;;;21.53;42.35;101528.06;4919518;28;47560;-43
2023/09/25 04:13:26;;;;;;;;;3.00;3.00;;;;;21.53;42.56;101528.06;4920073;28;45332;-48
2023/09/25 04:15:52;;;;;;;;;4.00;4.00;;;;;21.52;42.59;101534.25;4919862;28;45405;-48
2023/09/25 04:18:18;;;;;;;;;3.25;3.25;;;;;21.53;42.42;101535.09;4919613;28;45504;-40
2023/09/25 04:20:44;;;;;;;;;4.00;3.00;;;;;21.52;42.45;101536.91;4919629;28;45408;-45
2023/09/25 04:23:09;;;;;;;;;3.00;3.00;;;;;21.51;42.53;101535.19;4919799;28;45289;-48
2023/09/25 04:25:35;;;;;;;;;4.00;3.00;;;;;21.52;42.37;101536.03;4919932;28;45233;-44
2023/09/25 04:28:00;;;;;;;;;3.00;3.00;;;;;21.50;42.19;101532.63;4919479;28;46446;-47
2023/09/25 04:30:27;;;;;;;;;3.00;3.00;;;;;21.48;42.42;101535.34;4919721;28;45370;-44
2023/09/25 04:32:54;;;;;;;;;3.00;3.00;;;;;21.45;42.21;101524.91;4902565;28;45221;-45
2023/09/25 04:35:20;;;;;;;;;3.00;3.00;;;;;21.43;42.61;101534.72;4919789;28;45609;-48
2023/09/25 04:37:46;;;;;;;;;2.00;2.00;;;;;21.43;42.56;101537.34;4919438;28;45439;-48
2023/09/25 04:42:42;;;;;;;;;4.00;4.00;;;;;21.40;42.41;101532.22;4919577;28;45300;-41
2023/09/25 04:45:12;;;;;;;;;5.00;3.75;;;;;21.38;42.86;101539.34;4938369;28;45210;-43
2023/09/25 04:47:40;;;;;;;;;4.50;4.00;;;;;21.36;42.68;101535.91;4938526;28;47221;-41
2023/09/25 04:50:06;;;;;;;;;4.75;4.00;;;;;21.35;42.75;101542.13;4921112;28;45252;-43
2023/09/25 04:52:31;;;;;;;;;2.50;2.50;;;;;21.33;42.88;101539.56;4938689;28;45403;-41
2023/09/25 04:54:57;;;;;;;;;3.75;2.00;;;;;21.33;42.68;101541.38;4921910;28;45489;-40
2023/09/25 04:57:22;;;;;;;;;3.00;3.00;;;;;21.31;42.69;101549.31;4937437;28;46454;-40
2023/09/25 04:59:47;;;;;;;;;3.00;3.00;;;;;21.29;42.80;101544.13;4938169;28;45296;-42
2023/09/25 05:02:13;;;;;;;;;1.75;1.75;;;;;21.26;42.84;101546.06;4938230;28;48448;-44
2023/09/25 05:04:39;;;;;;;;;4.00;2.00;;;;;21.28;43.14;101557.38;4938607;28;45161;-41
2023/09/25 05:07:04;;;;;;;;;6.25;3.75;;;;;21.27;42.93;101556.53;4937670;28;61111;-42
2023/09/25 05:09:30;;;;;;;;;4.25;4.25;;;;;21.25;43.14;101561.00;4938528;28;45287;-39
2023/09/25 05:11:56;;;;;;;;;5.00;2.75;;;;;21.26;42.72;101562.72;4938518;28;45334;-41
2023/09/25 05:14:22;;;;;;;;;3.75;3.00;;;;;21.25;42.57;101561.00;4938576;28;45426;-41
2023/09/25 05:16:47;;;;;;;;;0.00;0.00;;;;;21.25;42.69;101566.28;4938279;28;45432;-42
2023/09/25 05:19:13;;;;;;;;;4.00;2.00;;;;;21.24;42.81;101564.56;4938039;28;45422;-42
2023/09/25 05:21:38;;;;;;;;;3.25;2.25;;;;;21.26;42.71;101561.88;4938234;28;45385;-42
2023/09/25 05:24:03;;;;;;;;;3.50;3.50;;;;;21.24;42.63;101563.72;4938444;28;45417;-41
2023/09/25 05:26:29;;;;;;;;;3.00;3.00;;;;;21.23;42.87;101565.50;4938269;28;46672;-38
2023/09/25 05:28:55;;;;;;;;;2.25;2.25;;;;;21.24;42.63;101567.22;4937937;28;45325;-41
2023/09/25 05:31:20;;;;;;;;;5.25;3.50;;;;;21.23;42.77;101556.75;4937613;28;45435;-41
2023/09/25 05:33:45;;;;;;;;;6.00;4.00;;;;;21.21;42.67;101564.75;4938077;28;45210;-40
2023/09/25 05:36:10;;;;;;;;;3.00;2.67;;;;;21.20;42.65;101568.31;4937310;28;63977;-40
2023/09/25 05:38:36;;;;;;;;;9.67;2.00;;;;;21.21;42.60;101553.31;4937105;28;59685;-38
2023/09/25 05:41:01;;;;;;;;;3.25;2.00;;;;;21.19;42.77;101545.50;4938409;28;45319;-41
2023/09/25 05:43:27;;;;;;;;;4.50;3.25;;;;;21.19;42.56;101555.16;4937954;28;45320;-41
2023/09/25 05:45:52;;;;;;;;;1.00;1.00;;;;;21.17;42.90;101558.72;4920308;28;47950;-41
2023/09/25 05:48:17;;;;;;;;;3.00;3.00;;;;;21.17;42.65;101561.38;4937751;28;45271;-38
2023/09/25 05:50:43;;;;;;;;;5.00;4.00;;;;;21.17;43.00;101568.44;4937107;28;57938;-38
2023/09/25 05:53:08;;;;;;;;;5.00;4.00;;;;;21.17;42.94;101568.44;4937705;28;45522;-39
2023/09/25 05:55:34;;;;;;;;;4.00;3.00;;;;;21.16;42.78;101574.63;4937502;28;56566;-39
2023/09/25 05:57:59;;;;;;;;;3.00;3.00;;;;;21.16;42.82;101578.13;4936752;28;45447;-40
2023/09/25 06:00:24;;;;;;;;;4.00;3.00;;;;;21.16;42.72;101580.78;4937664;28;45301;-41
2023/09/25 06:02:50;;;;;;;;;3.00;2.00;;;;;21.17;42.62;101587.72;4937792;28;45540;-41
2023/09/25 06:05:15;;;;;;;;;4.50;2.75;;;;;21.17;42.83;101585.09;4937503;28;45838;-38
2023/09/25 06:07:42;;;;;;;;;4.75;3.75;;;;;21.17;42.62;101589.53;4937581;28;45338;-40
2023/09/25 06:10:08;;;;;;;;;5.00;4.00;;;;;21.17;42.54;101589.53;4922546;28;45358;-39
2023/09/25 06:12:33;;;;;;;;;4.25;4.00;;;;;21.17;42.65;101589.53;4941623;28;45497;-41
2023/09/25 06:14:59;;;;;;;;;3.75;3.00;;;;;21.17;42.94;101592.16;4940799;28;45692;-43
2023/09/25 06:17:26;;;;;;;;;6.50;4.00;;;;;21.16;42.56;101590.44;4940765;28;45205;-42
2023/09/25 06:19:53;;;;;;;;;4.25;3.75;;;;;21.16;42.67;101591.31;4940795;28;45418;-39
2023/09/25 06:22:21;;;;;;;;;5.75;3.00;;;;;21.17;42.90;101600.06;4941029;28;45483;-43
2023/09/25 06:24:46;;;;;;;;;6.00;4.00;;;;;21.16;42.85;101593.09;4940760;28;46595;-45
2023/09/25 06:27:12;;;;;;;;;5.00;4.00;;;;;21.17;42.65;101589.53;4940717;28;45459;-44
2023/09/25 06:29:37;;;;;;;;;5.00;2.75;;;;;21.18;42.55;101596.50;4940701;28;45353;-39
2023/09/25 06:32:03;;;;;;;;;5.25;3.75;;;;;21.18;42.69;101593.88;4941068;28;45417;-40
2023/09/25 06:34:28;;;;;;;;;5.00;3.00;;;;;21.19;42.82;101598.22;4940518;28;45664;-44
2023/09/25 06:36:53;;;;;;;;;6.00;4.00;;;;;21.20;43.09;101591.16;4939901;28;63084;-45
2023/09/25 06:39:19;;;;;;;;;4.00;4.00;;;;;21.20;42.62;101592.03;4940412;28;45347;-43
2023/09/25 06:41:44;;;;;;;;;6.00;4.25;;;;;21.20;43.00;101594.66;4940138;28;53892;-41
2023/09/25 06:44:09;;;;;;;;;4.00;3.25;;;;;21.19;42.75;101587.69;4940480;28;46797;-38
2023/09/25 06:46:36;;;;;;;;;3.00;3.00;;;;;21.18;42.29;101591.22;4940619;28;45232;-41
2023/09/25 06:49:02;;;;;;;;;5.00;5.00;;;;;21.19;42.96;101595.59;4940377;28;45239;-42
2023/09/25 06:51:31;;;;;;;;;3.00;3.00;;;;;21.18;42.93;101596.50;4940709;28;45754;-42
2023/09/25 06:53:56;;;;;;;;;6.75;4.00;;;;;21.18;43.35;101601.78;4940081;28;45465;-40
2023/09/25 06:56:22;;;;;;;;;5.50;3.25;;;;;21.17;42.74;101600.06;4940264;28;45348;-40
2023/09/25 06:58:47;;;;;;;;;3.00;3.00;;;;;21.19;42.63;101600.84;4940332;28;45460;-43
2023/09/25 07:01:13;;;;;;;;;5.25;4.50;;;;;21.18;43.02;101596.50;4923082;28;45563;-42
2023/09/25 07:03:38;;;;;;;;;4.00;4.00;;;;;21.18;42.95;101596.50;4940263;28;46238;-39
2023/09/25 07:06:03;;;;;;;;;7.00;4.00;;;;;21.17;43.04;101602.69;4940494;28;45543;-44
2023/09/25 07:08:30;;;;;;;;;4.00;4.00;;;;;21.19;42.67;101608.78;4940246;28;45327;-42
2023/09/25 07:10:56;;;;;;;;;1.00;1.00;;;;;21.19;42.96;101621.94;4940144;28;45188;-42
2023/09/25 07:13:22;;;;;;;;;4.75;3.50;;;;;21.19;42.89;101613.16;4939823;28;46560;-44
2023/09/25 07:15:47;;;;;;;;;5.25;4.00;;;;;21.22;43.09;101623.59;4922553;28;45408;-47
2023/09/25 07:18:13;;;;;;;;;5.00;5.00;;;;;21.23;43.10;101615.59;4939975;28;45438;-39
2023/09/25 07:20:39;;;;;;;;;4.25;4.00;;;;;21.25;43.37;101624.28;4921769;28;45529;-44
2023/09/25 07:23:05;;;;;;;;;4.50;4.25;;;;;21.27;42.92;101614.53;4939999;28;46620;-46
2023/09/25 07:25:30;;;;;;;;;3.75;3.75;;;;;21.30;42.82;101619.66;4939777;28;45463;-41
2023/09/25 07:27:56;;;;;;;;;6.75;4.00;;;;;21.29;42.88;101615.31;4939822;28;45418;-41
2023/09/25 07:30:21;;;;;;;;;7.00;5.25;;;;;21.31;42.60;101618.75;4939727;28;45362;-42
2023/09/25 07:32:46;;;;;;;;;6.00;6.00;;;;;21.30;42.31;101617.03;4939457;28;45512;-41
2023/09/25 07:35:15;;;;;;;;;6.00;5.00;;;;;21.33;42.78;101618.66;4939639;28;45426;-48
2023/09/25 07:37:44;;;;;;;;;4.25;3.50;;;;;21.31;42.71;101613.47;4922596;28;45321;-41
2023/09/25 07:40:11;;;;;;;;;8.00;4.00;;;;;21.31;42.31;101617.88;4940133;28;45579;-41
2023/09/25 07:42:38;;;;;;;;;5.25;4.00;;;;;21.31;42.50;101616.13;4939766;28;46385;-43
2023/09/25 07:45:11;;;;;;;;;4.25;4.25;;;;;21.32;42.53;101624.88;4939292;28;45419;-41
2023/09/25 07:47:41;;;;;;;;;4.25;4.25;;;;;21.33;42.67;101623.09;4939754;28;45319;-41
2023/09/25 07:50:11;;;;;;;;;3.00;3.00;;;;;21.33;42.66;101629.22;4939962;28;45411;-44
2023/09/25 07:52:42;;;;;;;;;5.00;5.00;;;;;21.33;42.75;101629.22;4939493;28;45442;-40
2023/09/25 07:55:11;;;;;;;;;5.00;4.50;;;;;21.33;42.40;101631.00;4922413;28;45281;-45
2023/09/25 07:57:39;;;;;;;;;5.00;5.00;;;;;21.33;42.81;101626.56;4939542;28;45369;-42
2023/09/25 08:00:37;;;;;;;;;4.50;3.25;;;;;21.34;42.95;101627.41;4939423;28;45335;-45
2023/09/25 08:02:56;;;;;;;;;4.50;4.25;;;;;21.34;42.67;101627.41;4938485;28;46307;-46
2023/09/25 08:05:22;;;;;;;;;5.00;4.50;;;;;21.35;42.67;101621.22;4939123;28;45327;-47
2023/09/25 08:07:49;;;;;;;;;4.00;4.00;;;;;21.35;43.00;101624.72;4939238;28;45425;-40
2023/09/25 08:10:17;;;;;;;;;5.25;3.75;;;;;21.35;42.44;101624.72;4939307;28;45359;-38
2023/09/25 08:12:43;;;;;;;;;7.50;4.00;;;;;21.36;42.52;101628.22;4922107;28;46173;-42
2023/09/25 08:15:09;;;;;;;;;7.50;4.50;;;;;21.36;42.61;101626.44;4939394;28;45248;-38
2023/09/25 08:17:34;;;;;;;;;4.00;3.25;;;;;21.38;42.59;101636.91;4939224;28;45414;-41
2023/09/25 08:20:00;;;;;;;;;3.50;3.50;;;;;21.37;42.61;101643.97;4939278;28;45709;-40
2023/09/25 08:22:26;;;;;;;;;4.00;3.25;;;;;21.39;42.36;101641.25;4938793;28;45661;-42
2023/09/25 08:24:51;;;;;;;;;5.25;3.00;;;;;21.40;42.66;101645.63;4938860;28;45448;-41
2023/09/25 08:27:18;;;;;;;;;4.25;4.25;;;;;21.39;42.44;101642.09;4939036;28;45310;-42
2023/09/25 08:29:45;;;;;;;;;5.25;5.00;;;;;21.39;42.43;101636.00;4939242;28;45327;-43
2023/09/25 08:32:11;;;;;;;;;2.75;2.00;;;;;21.41;42.67;101636.78;4938761;28;46139;-39
2023/09/25 08:34:36;;;;;;;;;6.00;4.25;;;;;21.40;42.56;101638.53;4938803;28;45220;-41
2023/09/25 14:07:35;;;;;;;;;3.25;3.00;;;;;22.25;45.25;101575.56;4889544;26;45368;-42
2023/09/25 14:10:01;;;;;;;;;6.00;4.00;;;;;22.26;45.27;101579.06;4899580;28;45450;-42
2023/09/25 14:12:26;;;;;;;;;6.00;4.00;;;;;22.27;45.31;101586.06;4899380;28;45173;-43
2023/09/25 14:14:53;;;;;;;;;5.50;4.00;;;;;22.26;45.40;101573.78;4898938;28;51623;-45
2023/09/25 14:17:19;;;;;;;;;3.00;3.00;;;;;22.28;45.85;101577.19;4898953;28;45368;-41
2023/09/25 14:19:45;;;;;;;;;5.00;5.00;;;;;22.28;45.56;101588.59;4899183;28;45293;-45
2023/09/25 14:22:11;;;;;;;;;6.50;4.00;;;;;22.29;45.54;101579.75;4899235;28;45472;-49
2023/09/25 14:24:36;;;;;;;;;5.75;5.75;;;;;22.30;45.29;101585.91;4898735;28;46341;-44
2023/09/25 14:27:02;;;;;;;;;6.00;4.50;;;;;22.29;45.52;101578.91;4898479;28;67246;-39
2023/09/25 14:29:29;;;;;;;;;5.00;5.00;;;;;22.29;45.40;101576.28;4897756;29;45404;-41
2023/09/25 14:31:55;;;;;;;;;6.25;5.25;;;;;22.28;45.65;101564.00;4902652;28;45484;-42
2023/09/25 14:34:21;;;;;;;;;6.00;5.00;;;;;22.28;45.63;101566.63;4902234;28;45271;-39
2023/09/25 14:36:47;;;;;;;;;4.00;3.00;;;;;22.27;45.61;101567.56;4902139;28;45446;-43
2023/09/25 14:39:13;;;;;;;;;5.00;3.75;;;;;22.27;45.72;101565.75;4902356;28;45403;-41
2023/09/25 14:41:39;;;;;;;;;6.00;4.00;;;;;22.26;45.86;101563.22;4902338;28;45441;-43
2023/09/25 14:44:05;;;;;;;;;4.00;4.00;;;;;22.26;45.85;101568.50;4901901;28;46063;-45
2023/09/25 14:46:31;;;;;;;;;6.25;5.75;;;;;22.26;45.70;101569.38;4902363;28;45290;-42
2023/09/25 14:48:57;;;;;;;;;5.25;5.25;;;;;22.26;45.93;101569.38;4902201;29;45446;-45
2023/09/25 14:51:22;;;;;;;;;5.50;5.50;;;;;22.24;46.17;101566.78;4902237;28;45506;-49
2023/09/25 14:53:48;;;;;;;;;5.75;4.00;;;;;22.24;46.05;101561.50;4900435;28;48333;-48
2023/09/25 14:56:14;;;;;;;;;3.00;3.00;;;;;22.26;46.25;101571.13;4901866;28;45187;-45
2023/09/25 14:58:40;;;;;;;;;5.00;4.50;;;;;22.24;46.28;101566.78;4900782;29;45288;-48
2023/09/25 15:01:06;;;;;;;;;5.50;4.00;;;;;22.24;46.48;101577.34;4902124;28;45469;-41
2023/09/25 15:03:32;;;;;;;;;5.75;5.00;;;;;22.23;46.69;101573.00;4902076;28;45457;-45
2023/09/25 15:05:57;;;;;;;;;7.50;4.50;;;;;22.24;46.34;101576.50;4901383;28;45414;-48
2023/09/25 15:08:23;;;;;;;;;4.00;3.00;;;;;22.23;47.02;101583.56;4901881;28;45842;-45
2023/09/25 15:10:51;;;;;;;;;4.00;4.00;;;;;22.23;46.92;101575.63;4901833;28;45467;-40
2023/09/25 15:13:16;;;;;;;;;9.00;5.00;;;;;22.23;47.00;101574.78;4901497;28;46897;-38
2023/09/25 15:15:41;;;;;;;;;4.25;4.00;;;;;22.22;46.82;101579.22;4901483;28;45351;-43
2023/09/25 15:18:07;;;;;;;;;4.00;3.00;;;;;22.23;47.19;101577.44;4900390;29;45383;-43
2023/09/25 15:20:32;;;;;;;;;6.50;5.00;;;;;22.22;47.50;101573.94;4902092;28;45582;-41
2023/09/25 15:22:57;;;;;;;;;4.00;4.00;;;;;22.23;47.46;101580.91;4901196;28;46066;-43
2023/09/25 15:25:23;;;;;;;;;4.75;3.00;;;;;22.21;47.73;101577.50;4901429;28;45300;-41
2023/09/25 15:27:49;;;;;;;;;4.25;3.75;;;;;22.21;47.60;101576.66;4901535;28;45295;-40
2023/09/25 15:30:15;;;;;;;;;3.00;3.00;;;;;22.21;47.59;101577.50;4901575;28;45176;-41
2023/09/25 15:32:40;;;;;;;;;5.50;5.50;;;;;22.21;47.78;101576.66;4901289;28;45342;-41
2023/09/25 15:35:06;;;;;;;;;4.25;4.00;;;;;22.21;47.91;101582.78;4901000;29;56662;-41
2023/09/25 15:37:32;;;;;;;;;3.00;3.00;;;;;22.21;47.95;101572.22;4901483;29;45301;-42
2023/09/25 15:39:58;;;;;;;;;5.00;5.00;;;;;22.20;48.03;101583.75;4901571;28;45547;-41
2023/09/25 15:42:24;;;;;;;;;4.50;3.00;;;;;22.19;47.96;101579.38;4883197;29;47358;-41
2023/09/25 15:44:49;;;;;;;;;3.00;3.00;;;;;22.21;47.68;101581.94;4915481;28;45455;-41
2023/09/25 15:47:15;;;;;;;;;4.00;4.00;;;;;22.20;48.29;101581.09;4901256;28;45838;-43
2023/09/25 15:49:40;;;;;;;;;4.00;4.00;;;;;22.21;48.12;101582.78;4901289;28;45373;-39
2023/09/25 15:52:06;;;;;;;;;2.50;2.25;;;;;22.24;48.33;101587.06;4901258;28;45235;-44
2023/09/25 15:54:31;;;;;;;;;4.00;4.00;;;;;22.24;47.84;101592.34;4900953;28;45370;-48
2023/09/25 15:56:56;;;;;;;;;6.25;3.50;;;;;22.24;47.96;101595.00;4901174;28;45523;-38
2023/09/25 15:59:22;;;;;;;;;5.75;4.00;;;;;22.24;48.19;101587.91;4903784;28;45438;-43
2023/09/25 16:01:48;;;;;;;;;5.00;3.25;;;;;22.24;48.40;101582.63;4910443;28;46866;-43
2023/09/25 16:04:13;;;;;;;;;1.00;1.00;;;;;22.24;48.25;101580.00;4909803;28;45442;-44
2023/09/25 16:06:38;;;;;;;;;3.50;3.50;;;;;22.26;48.39;101581.69;4907930;28;45472;-45
2023/09/25 16:09:04;;;;;;;;;4.75;4.00;;;;;22.26;48.43;101579.06;4909813;28;45437;-42
2023/09/25 16:11:29;;;;;;;;;5.00;4.00;;;;;22.24;48.38;101582.63;4907837;28;46740;-44
2023/09/25 16:13:54;;;;;;;;;4.00;2.75;;;;;22.27;48.57;101583.41;4900420;29;57160;-43
2023/09/25 16:16:19;;;;;;;;;7.00;5.00;;;;;22.27;48.30;101586.06;4900372;28;57080;-43
2023/09/25 16:18:45;;;;;;;;;5.50;3.00;;;;;22.27;48.37;101588.69;4901108;29;45232;-46
2023/09/25 16:21:10;;;;;;;;;5.00;4.50;;;;;22.27;48.95;101588.69;4899594;28;58498;-43
2023/09/25 16:23:36;;;;;;;;;5.00;5.00;;;;;22.27;48.63;101581.59;4899667;29;45379;-46
2023/09/25 16:26:01;;;;;;;;;6.00;3.25;;;;;22.28;49.33;101582.47;4900827;28;45307;-43
2023/09/25 16:28:26;;;;;;;;;4.00;3.00;;;;;22.29;48.61;101581.56;4915382;28;45489;-44
2023/09/25 16:30:52;;;;;;;;;5.50;3.25;;;;;22.30;49.12;101585.91;4914945;28;47482;-40
2023/09/25 16:33:17;;;;;;;;;6.50;4.25;;;;;22.29;49.00;101585.03;4900415;28;45383;-40
2023/09/25 16:35:43;;;;;;;;;3.33;3.33;;;;;22.29;49.14;101590.31;4899689;29;60178;-43
2023/09/25 16:38:10;;;;;;;;;6.00;3.75;;;;;22.29;49.08;101600.88;4900930;28;45626;-40
2023/09/25 16:40:39;;;;;;;;;3.25;3.25;;;;;22.29;49.22;101594.75;4900452;28;46986;-40
2023/09/25 16:43:05;;;;;;;;;5.00;4.00;;;;;22.30;49.81;101591.19;4900476;28;45267;-38
2023/09/25 16:45:36;;;;;;;;;3.25;2.75;;;;;22.30;49.50;101593.81;4900469;29;45471;-40
2023/09/25 16:48:01;;;;;;;;;4.25;3.00;;;;;22.29;49.67;101590.31;4900518;28;45438;-40
2023/09/25 16:50:27;;;;;;;;;3.75;3.50;;;;;22.30;49.54;101592.03;4914539;28;45856;-45
2023/09/25 16:52:52;;;;;;;;;4.00;4.00;;;;;22.29;49.28;101594.75;4899852;28;45241;-39